createdAt,value
2018-10-01T00:00:01.854Z,99994.05
2018-10-01T00:02:28.746Z,99997.73
2018-10-01T00:04:55.678Z,100000.09
2018-10-01T00:07:23.554Z,100000.62
2018-10-01T00:09:50.418Z,99999.02
2018-10-01T00:12:17.266Z,99994.72
2018-10-01T00:14:44.127Z,99994.88
2018-10-01T00:17:11.008Z,99998.38
2018-10-01T00:19:43.857Z,99995.80
2018-10-01T00:22:16.673Z,99992.33
2018-10-01T00:24:43.523Z,99994.38
2018-10-01T00:27:10.431Z,99989.91
2018-10-01T00:29:37.346Z,99989.12
2018-10-01T00:32:04.219Z,99987.17
2018-10-01T00:34:31.042Z,99982.77
2018-10-01T00:36:57.906Z,99985.03
2018-10-01T00:39:24.754Z,99982.02
2018-10-01T00:41:51.610Z,99990.59
2018-10-01T00:44:18.486Z,99988.25
2018-10-01T00:46:45.430Z,99986.36
2018-10-01T00:49:12.286Z,99990.41
2018-10-01T00:51:39.127Z,99995.81
2018-10-01T00:54:06.405Z,99985.20
2018-10-01T00:56:33.246Z,99990.55
2018-10-01T00:59:00.147Z,99988.98
2018-10-01T01:01:27.116Z,99995.03
2018-10-01T01:03:54.014Z,99990.28
2018-10-01T01:06:20.887Z,99993.91
2018-10-01T01:08:47.790Z,100001.23
2018-10-01T01:11:14.917Z,100003.62
2018-10-01T01:13:41.854Z,100001.31
2018-10-01T01:16:08.713Z,99999.45
2018-10-01T01:18:35.551Z,100000.80
2018-10-01T01:21:02.450Z,100006.67
2018-10-01T01:23:29.382Z,100008.00
2018-10-01T01:25:56.258Z,100010.20
2018-10-01T01:28:23.201Z,100010.56
2018-10-01T01:30:50.048Z,100008.75
2018-10-01T01:33:16.909Z,100018.36
2018-10-01T01:35:43.746Z,100015.50
2018-10-01T01:38:10.612Z,100015.22
2018-10-01T01:40:37.462Z,100019.85
2018-10-01T01:43:04.326Z,100019.26
2018-10-01T01:45:31.183Z,100019.05
2018-10-01T01:47:58.034Z,100019.50
2018-10-01T01:50:24.902Z,100021.65
2018-10-01T01:52:51.830Z,100019.03
2018-10-01T01:55:18.705Z,100015.83
2018-10-01T01:57:45.563Z,100013.93
2018-10-01T02:00:12.387Z,100007.91
2018-10-01T02:02:39.270Z,100005.30
2018-10-01T02:05:06.136Z,100005.42
2018-10-01T02:07:33.069Z,100006.75
2018-10-01T02:09:59.926Z,100006.77
2018-10-01T02:12:26.807Z,100012.15
2018-10-01T02:14:53.740Z,100005.64
2018-10-01T02:17:20.606Z,100007.22
2018-10-01T02:19:47.574Z,100006.24
2018-10-01T02:22:14.434Z,100006.06
2018-10-01T02:24:41.381Z,100001.11
2018-10-01T02:27:08.222Z,100001.19
2018-10-01T02:29:35.066Z,100004.14
2018-10-01T02:32:01.906Z,99997.17
2018-10-01T02:34:28.794Z,99995.11
2018-10-01T02:36:55.650Z,99999.58
2018-10-01T02:39:22.594Z,100001.47
2018-10-01T02:41:49.439Z,99996.77
2018-10-01T02:44:17.326Z,100001.55
2018-10-01T02:46:44.191Z,100003.66
2018-10-01T02:49:11.032Z,100006.09
2018-10-01T02:51:43.517Z,100001.30
2018-10-01T02:54:16.171Z,99998.39
2018-10-01T02:56:43.081Z,99992.91
2018-10-01T02:59:09.946Z,99995.13
2018-10-01T03:01:36.875Z,99998.52
2018-10-01T03:04:03.695Z,99999.91
2018-10-01T03:06:30.593Z,99994.05
2018-10-01T03:08:57.511Z,99995.51
2018-10-01T03:11:24.431Z,99991.28
2018-10-01T03:13:51.254Z,99987.17
2018-10-01T03:16:18.116Z,99990.32
2018-10-01T03:18:44.998Z,99989.67
2018-10-01T03:21:11.966Z,99989.19
2018-10-01T03:23:38.926Z,99987.14
2018-10-01T03:26:05.838Z,99992.56
2018-10-01T03:28:34.746Z,99993.20
2018-10-01T03:31:01.656Z,99991.97
2018-10-01T03:33:28.579Z,99996.19
2018-10-01T03:35:55.443Z,99990.09
2018-10-01T03:38:22.392Z,99998.12
2018-10-01T03:40:49.335Z,99995.68
2018-10-01T03:43:16.155Z,99999.95
2018-10-01T03:45:43.043Z,100008.36
2018-10-01T03:48:10.235Z,100006.09
2018-10-01T03:50:37.195Z,100017.20
2018-10-01T03:53:04.108Z,100021.85
2018-10-01T03:55:30.963Z,100016.39
2018-10-01T03:57:57.828Z,100023.36
2018-10-01T04:00:24.724Z,100026.42
2018-10-01T04:02:51.674Z,100031.98
2018-10-01T04:05:18.570Z,100035.70
2018-10-01T04:07:45.443Z,100045.27
2018-10-01T04:10:12.299Z,100046.11
2018-10-01T04:12:39.170Z,100046.45
2018-10-01T04:15:06.066Z,100047.29
2018-10-01T04:17:33.218Z,100051.70
2018-10-01T04:20:00.049Z,100057.83
2018-10-01T04:22:33.499Z,100054.70
2018-10-01T04:25:01.325Z,100057.98
2018-10-01T04:27:28.177Z,100059.47
2018-10-01T04:29:55.006Z,100056.02
2018-10-01T04:32:21.906Z,100058.07
2018-10-01T04:34:48.850Z,100061.89
2018-10-01T04:37:15.688Z,100068.47
2018-10-01T04:39:42.559Z,100063.63
2018-10-01T04:42:09.455Z,100067.22
2018-10-01T04:44:36.373Z,100074.78
2018-10-01T04:47:03.235Z,100077.09
2018-10-01T04:49:30.186Z,100076.05
2018-10-01T04:51:57.007Z,100077.04
2018-10-01T04:54:23.891Z,100083.61
2018-10-01T04:56:50.742Z,100083.70
2018-10-01T04:59:17.598Z,100086.27
2018-10-01T05:01:44.447Z,100087.78
2018-10-01T05:04:11.740Z,100090.19
2018-10-01T05:06:38.236Z,100097.75
2018-10-01T05:09:07.173Z,100098.28
2018-10-01T05:11:34.038Z,100110.97
2018-10-01T05:14:00.874Z,100111.00
2018-10-01T05:16:27.734Z,100111.31
2018-10-01T05:18:54.585Z,100108.30
2018-10-01T05:21:21.470Z,100111.66
2018-10-01T05:23:48.415Z,100120.16
2018-10-01T05:26:15.268Z,100120.86
2018-10-01T05:28:42.110Z,100118.86
2018-10-01T05:31:08.954Z,100123.58
2018-10-01T05:33:35.842Z,100127.89
2018-10-01T05:36:02.670Z,100135.67
2018-10-01T05:38:29.509Z,100135.44
2018-10-01T05:40:56.375Z,100140.11
2018-10-01T05:43:23.917Z,100137.03
2018-10-01T05:45:51.830Z,100141.72
2018-10-01T05:48:18.666Z,100145.23
2018-10-01T05:50:45.506Z,100147.03
2018-10-01T05:53:12.462Z,100151.30
2018-10-01T05:55:39.380Z,100152.85
2018-10-01T05:58:06.377Z,100158.74
2018-10-01T06:00:33.662Z,100161.27
2018-10-01T06:03:00.530Z,100168.09
2018-10-01T06:05:27.389Z,100162.05
2018-10-01T06:07:54.381Z,100163.22
2018-10-01T06:10:21.429Z,100168.05
2018-10-01T06:12:48.385Z,100172.63
2018-10-01T06:15:15.320Z,100172.36
2018-10-01T06:17:42.154Z,100175.13
2018-10-01T06:20:08.994Z,100178.72
2018-10-01T06:22:35.902Z,100172.16
2018-10-01T06:25:03.477Z,100174.72
2018-10-01T06:27:30.324Z,100178.88
2018-10-01T06:29:57.145Z,100180.66
2018-10-01T06:32:24.013Z,100184.91
2018-10-01T06:34:50.886Z,100185.39
2018-10-01T06:37:17.963Z,100186.27
2018-10-01T06:39:44.894Z,100193.70
2018-10-01T06:42:11.756Z,100196.47
2018-10-01T06:44:38.606Z,100200.55
2018-10-01T06:47:05.714Z,100202.18
2018-10-01T06:49:32.625Z,100206.73
2018-10-01T06:51:59.458Z,100211.62
2018-10-01T06:54:26.376Z,100215.31
2018-10-01T06:56:53.342Z,100221.67
2018-10-01T06:59:20.249Z,100225.66
2018-10-01T07:01:47.207Z,100227.14
2018-10-01T07:04:14.022Z,100233.48
2018-10-01T07:06:40.906Z,100237.80
2018-10-01T07:09:08.581Z,100241.16
2018-10-01T07:11:35.679Z,100245.40
2018-10-01T07:14:02.408Z,100251.17
2018-10-01T07:16:29.352Z,100250.28
2018-10-01T07:18:56.109Z,100254.52
2018-10-01T07:21:23.007Z,100259.09
2018-10-01T07:23:49.919Z,100261.05
2018-10-01T07:26:16.759Z,100261.37
2018-10-01T07:28:43.653Z,100260.89
2018-10-01T07:31:10.582Z,100272.80
2018-10-01T07:33:37.433Z,100273.73
2018-10-01T07:36:04.262Z,100266.55
2018-10-01T07:38:31.174Z,100265.41
2018-10-01T07:40:58.146Z,100267.41
2018-10-01T07:43:25.061Z,100265.95
2018-10-01T07:45:51.938Z,100268.41
2018-10-01T07:48:18.814Z,100275.30
2018-10-01T07:50:45.856Z,100289.98
2018-10-01T07:53:12.607Z,100292.43
2018-10-01T07:55:39.546Z,100303.37
2018-10-01T07:58:06.394Z,100299.13
2018-10-01T08:00:33.311Z,100302.66
2018-10-01T08:03:00.246Z,100306.45
2018-10-01T08:05:27.170Z,100315.37
2018-10-01T08:07:53.995Z,100312.92
2018-10-01T08:10:20.898Z,100322.07
2018-10-01T08:12:47.830Z,100322.28
2018-10-01T08:15:14.694Z,100330.06
2018-10-01T08:17:41.538Z,100330.48
2018-10-01T08:20:08.468Z,100336.82
2018-10-01T08:22:35.358Z,100343.61
2018-10-01T08:25:02.238Z,100356.48
2018-10-01T08:27:29.178Z,100362.36
2018-10-01T08:29:56.163Z,100362.14
2018-10-01T08:32:22.871Z,100358.66
2018-10-01T08:34:49.737Z,100367.62
2018-10-01T08:37:16.585Z,100367.04
2018-10-01T08:39:43.446Z,100367.05
2018-10-01T08:42:10.310Z,100369.02
2018-10-01T08:44:37.230Z,100366.20
2018-10-01T08:47:05.093Z,100373.52
2018-10-01T08:49:43.923Z,100367.71
2018-10-01T08:52:20.246Z,100361.34
2018-10-01T08:54:47.829Z,100372.64
2018-10-01T08:57:14.672Z,100372.48
2018-10-01T08:59:41.558Z,100384.89
2018-10-01T09:02:08.566Z,100377.05
2018-10-01T09:04:36.378Z,100372.84
2018-10-01T09:07:03.233Z,100380.02
2018-10-01T09:09:30.073Z,100368.42
2018-10-01T09:11:57.134Z,100376.20
2018-10-01T09:14:23.975Z,100378.02
2018-10-01T09:16:50.858Z,100376.33
2018-10-01T09:19:17.702Z,100375.22
2018-10-01T09:21:44.567Z,100378.39
2018-10-01T09:24:11.426Z,100374.44
2018-10-01T09:26:38.340Z,100378.55
2018-10-01T09:29:05.222Z,100385.91
2018-10-01T09:31:32.078Z,100387.23
2018-10-01T09:33:58.953Z,100388.67
2018-10-01T09:36:25.810Z,100390.13
2018-10-01T09:38:52.986Z,100390.64
2018-10-01T09:41:19.930Z,100404.58
2018-10-01T09:43:46.866Z,100404.88
2018-10-01T09:46:13.711Z,100399.86
2018-10-01T09:48:40.578Z,100412.05
2018-10-01T09:51:07.533Z,100403.53
2018-10-01T09:53:34.410Z,100408.33
2018-10-01T09:56:01.308Z,100414.68
2018-10-01T09:58:28.107Z,100409.44
2018-10-01T10:01:00.654Z,100407.54
2018-10-01T10:03:27.599Z,100401.45
2018-10-01T10:05:54.572Z,100409.23
2018-10-01T10:08:21.517Z,100404.57
2018-10-01T10:10:48.431Z,100414.21
2018-10-01T10:13:15.425Z,100413.72
2018-10-01T10:15:43.372Z,100404.25
2018-10-01T10:18:10.190Z,100416.39
2018-10-01T10:20:37.109Z,100414.92
2018-10-01T10:23:03.937Z,100409.65
2018-10-01T10:25:30.931Z,100416.13
2018-10-01T10:27:57.843Z,100414.35
2018-10-01T10:30:24.714Z,100413.22
2018-10-01T10:32:51.639Z,100416.75
2018-10-01T10:35:18.587Z,100411.52
2018-10-01T10:37:45.460Z,100418.46
2018-10-01T10:40:12.344Z,100425.52
2018-10-01T10:42:39.279Z,100432.00
2018-10-01T10:45:06.172Z,100429.70
2018-10-01T10:47:33.073Z,100434.13
2018-10-01T10:50:00.054Z,100429.48
2018-10-01T10:52:26.889Z,100422.55
2018-10-01T10:54:53.750Z,100427.67
2018-10-01T10:57:20.615Z,100431.66
2018-10-01T10:59:47.458Z,100433.55
2018-10-01T11:02:14.387Z,100420.09
2018-10-01T11:04:41.269Z,100415.91
2018-10-01T11:07:08.176Z,100416.01
2018-10-01T11:09:35.078Z,100419.16
2018-10-01T11:12:01.907Z,100426.75
2018-10-01T11:14:28.828Z,100420.31
2018-10-01T11:16:55.782Z,100428.97
2018-10-01T11:19:22.859Z,100431.14
2018-10-01T11:21:49.681Z,100422.53
2018-10-01T11:24:16.494Z,100426.53
2018-10-01T11:26:44.460Z,100423.56
2018-10-01T11:29:11.303Z,100419.90
2018-10-01T11:31:38.158Z,100427.84
2018-10-01T11:34:04.950Z,100420.64
2018-10-01T11:36:31.822Z,100436.20
2018-10-01T11:38:58.724Z,100431.79
2018-10-01T11:41:25.655Z,100430.02
2018-10-01T11:43:52.642Z,100424.72
2018-10-01T11:46:19.458Z,100423.98
2018-10-01T11:48:46.293Z,100428.28
2018-10-01T11:51:13.252Z,100442.67
2018-10-01T11:53:40.121Z,100438.70
2018-10-01T11:56:06.958Z,100445.32
2018-10-01T11:58:33.823Z,100442.31
2018-10-01T12:01:00.686Z,100445.14
2018-10-01T12:03:27.543Z,100448.00
2018-10-01T12:05:54.388Z,100446.81
2018-10-01T12:08:21.222Z,100432.50
2018-10-01T12:10:48.107Z,100429.20
2018-10-01T12:13:15.037Z,100425.79
2018-10-01T12:15:41.936Z,100425.52
2018-10-01T12:18:08.775Z,100424.02
2018-10-01T12:20:36.011Z,100430.51
2018-10-01T12:23:02.782Z,100433.75
2018-10-01T12:25:29.663Z,100449.53
2018-10-01T12:27:56.594Z,100451.75
2018-10-01T12:30:23.426Z,100444.97
2018-10-01T12:32:50.294Z,100446.57
2018-10-01T12:35:17.270Z,100449.58
2018-10-01T12:37:44.422Z,100445.44
2018-10-01T12:40:11.319Z,100449.45
2018-10-01T12:42:38.283Z,100444.48
2018-10-01T12:45:05.892Z,100440.89
2018-10-01T12:47:32.770Z,100440.08
2018-10-01T12:49:59.618Z,100433.03
2018-10-01T12:52:26.486Z,100435.83
2018-10-01T12:54:53.354Z,100434.73
2018-10-01T12:57:20.376Z,100426.66
2018-10-01T12:59:47.154Z,100421.72
2018-10-01T13:02:13.978Z,100425.80
2018-10-01T13:04:40.874Z,100426.09
2018-10-01T13:07:07.802Z,100414.31
2018-10-01T13:09:34.688Z,100409.52
2018-10-01T13:12:01.642Z,100408.19
2018-10-01T13:14:28.450Z,100405.63
2018-10-01T13:16:57.386Z,100402.80
2018-10-01T13:19:24.262Z,100409.28
2018-10-01T13:21:51.204Z,100409.84
2018-10-01T13:24:18.153Z,100415.36
2018-10-01T13:26:44.909Z,100412.31
2018-10-01T13:29:11.776Z,100400.70
2018-10-01T13:31:38.618Z,100401.25
2018-10-01T13:34:06.502Z,100392.32
2018-10-01T13:36:33.422Z,100389.25
2018-10-01T13:39:00.211Z,100390.63
2018-10-01T13:41:27.060Z,100396.09
2018-10-01T13:43:53.946Z,100399.33
2018-10-01T13:46:20.873Z,100404.19
2018-10-01T13:48:47.849Z,100396.73
2018-10-01T13:51:14.687Z,100396.11
2018-10-01T13:53:41.550Z,100388.55
2018-10-01T13:56:08.402Z,100386.16
2018-10-01T13:58:35.239Z,100382.59
2018-10-01T14:01:02.125Z,100386.95
2018-10-01T14:03:29.973Z,100384.61
2018-10-01T14:05:56.810Z,100391.64
2018-10-01T14:08:23.686Z,100404.25
2018-10-01T14:10:50.530Z,100407.08
2018-10-01T14:13:17.525Z,100391.61
2018-10-01T14:15:44.426Z,100391.17
2018-10-01T14:18:11.314Z,100390.89
2018-10-01T14:20:38.166Z,100378.31
2018-10-01T14:23:06.062Z,100382.38
2018-10-01T14:25:33.001Z,100384.50
2018-10-01T14:27:59.874Z,100382.55
2018-10-01T14:30:26.789Z,100384.12
2018-10-01T14:32:53.682Z,100373.81
2018-10-01T14:35:20.525Z,100373.17
2018-10-01T14:37:47.387Z,100372.75
2018-10-01T14:40:14.242Z,100373.11
2018-10-01T14:42:41.132Z,100378.50
2018-10-01T14:45:08.180Z,100388.71
2018-10-01T14:47:35.111Z,100407.56
2018-10-01T14:50:01.957Z,100398.80
2018-10-01T14:52:28.830Z,100401.78
2018-10-01T14:54:55.682Z,100409.11
2018-10-01T14:57:22.543Z,100422.55
2018-10-01T14:59:49.378Z,100438.48
2018-10-01T15:02:16.276Z,100436.92
2018-10-01T15:04:43.197Z,100443.62
2018-10-01T15:07:10.069Z,100435.70
2018-10-01T15:09:37.035Z,100446.48
2018-10-01T15:12:04.022Z,100441.56
2018-10-01T15:14:30.828Z,100431.33
2018-10-01T15:16:57.693Z,100427.22
2018-10-01T15:19:24.669Z,100430.98
2018-10-01T15:21:51.620Z,100432.14
2018-10-01T15:24:18.565Z,100441.79
2018-10-01T15:26:45.402Z,100438.09
2018-10-01T15:29:12.250Z,100431.27
2018-10-01T15:31:39.298Z,100437.03
2018-10-01T15:34:06.182Z,100438.10
2018-10-01T15:36:33.062Z,100436.72
2018-10-01T15:38:59.882Z,100443.95
2018-10-01T15:41:26.735Z,100451.06
2018-10-01T15:43:53.614Z,100454.20
2018-10-01T15:46:20.574Z,100455.87
2018-10-01T15:48:47.515Z,100455.86
2018-10-01T15:51:14.385Z,100459.97
2018-10-01T15:53:41.240Z,100462.64
2018-10-01T15:56:08.171Z,100472.66
2018-10-01T15:58:35.042Z,100479.46
2018-10-01T16:01:01.952Z,100476.83
2018-10-01T16:03:28.869Z,100475.70
2018-10-01T16:05:55.843Z,100481.45
2018-10-01T16:08:22.814Z,100485.69
2018-10-01T16:10:49.725Z,100495.53
2018-10-01T16:13:16.573Z,100498.63
2018-10-01T16:15:43.526Z,100506.34
2018-10-01T16:18:10.434Z,100506.44
2018-10-01T16:20:37.333Z,100513.80
2018-10-01T16:23:04.195Z,100524.23
2018-10-01T16:25:31.083Z,100527.21
2018-10-01T16:27:57.878Z,100532.25
2018-10-01T16:30:24.763Z,100538.95
2018-10-01T16:32:51.629Z,100531.11
2018-10-01T16:35:18.466Z,100544.19
2018-10-01T16:37:45.362Z,100545.13
2018-10-01T16:40:12.310Z,100553.75
2018-10-01T16:42:39.294Z,100560.55
2018-10-01T16:45:06.287Z,100566.20
2018-10-01T16:47:33.471Z,100571.03
2018-10-01T16:50:00.469Z,100578.69
2018-10-01T16:52:27.450Z,100592.00
2018-10-01T16:54:54.486Z,100592.16
2018-10-01T16:57:21.421Z,100604.73
2018-10-01T16:59:48.485Z,100620.59
2018-10-01T17:02:15.511Z,100635.65
2018-10-01T17:04:42.484Z,100635.41
2018-10-01T17:07:09.488Z,100641.06
2018-10-01T17:09:36.458Z,100657.66
2018-10-01T17:12:03.450Z,100651.37
2018-10-01T17:14:30.351Z,100658.57
2018-10-01T17:16:59.322Z,100657.20
2018-10-01T17:19:26.430Z,100655.19
2018-10-01T17:21:53.429Z,100662.71
2018-10-01T17:24:20.382Z,100666.59
2018-10-01T17:26:47.238Z,100674.60
2018-10-01T17:29:14.228Z,100676.28
2018-10-01T17:31:41.211Z,100681.23
2018-10-01T17:34:08.248Z,100679.97
2018-10-01T17:36:35.190Z,100693.05
2018-10-01T17:39:02.088Z,100697.97
2018-10-01T17:41:28.985Z,100703.00
2018-10-01T17:43:55.973Z,100707.98
2018-10-01T17:46:22.826Z,100700.94
2018-10-01T17:48:49.855Z,100705.86
2018-10-01T17:51:16.777Z,100709.61
2018-10-01T17:53:43.722Z,100714.84
2018-10-01T17:56:10.675Z,100727.00
2018-10-01T17:58:37.613Z,100718.71
2018-10-01T18:01:04.449Z,100728.75
2018-10-01T18:03:31.314Z,100727.98
2018-10-01T18:05:58.725Z,100728.75
2018-10-01T18:08:25.590Z,100730.59
2018-10-01T18:10:52.580Z,100739.23
2018-10-01T18:13:19.554Z,100741.00
2018-10-01T18:15:46.490Z,100747.76
2018-10-01T18:18:13.438Z,100746.69
2018-10-01T18:20:40.329Z,100755.24
2018-10-01T18:23:07.282Z,100751.25
2018-10-01T18:25:34.230Z,100753.86
2018-10-01T18:28:01.230Z,100752.32
2018-10-01T18:30:28.183Z,100759.81
2018-10-01T18:32:55.098Z,100757.62
2018-10-01T18:35:21.965Z,100761.28
2018-10-01T18:37:48.940Z,100761.28
2018-10-01T18:40:17.952Z,100771.56
2018-10-01T18:42:44.901Z,100775.44
2018-10-01T18:45:11.931Z,100786.31
2018-10-01T18:47:38.831Z,100782.17
2018-10-01T18:50:06.330Z,100794.27
2018-10-01T18:52:33.203Z,100794.86
2018-10-01T18:55:00.112Z,100785.48
2018-10-01T18:57:27.264Z,100791.38
2018-10-01T18:59:54.126Z,100794.45
2018-10-01T19:02:21.962Z,100786.29
2018-10-01T19:04:48.870Z,100789.66
2018-10-01T19:07:15.762Z,100792.94
2018-10-01T19:09:44.700Z,100804.52
2018-10-01T19:12:11.638Z,100809.42
2018-10-01T19:14:38.462Z,100813.13
2018-10-01T19:17:05.526Z,100813.61
2018-10-01T19:19:32.298Z,100818.03
2018-10-01T19:21:59.167Z,100813.99
2018-10-01T19:24:26.185Z,100817.34
2018-10-01T19:26:53.281Z,100818.95
2018-10-01T19:29:22.006Z,100813.03
2018-10-01T19:31:48.975Z,100812.24
2018-10-01T19:34:15.926Z,100815.73
2018-10-01T19:36:42.767Z,100821.22
2018-10-01T19:39:09.699Z,100828.95
2018-10-01T19:41:36.572Z,100835.53
2018-10-01T19:44:03.507Z,100848.42
2018-10-01T19:46:30.322Z,100844.61
2018-10-01T19:48:57.237Z,100843.13
2018-10-01T19:51:24.272Z,100853.60
2018-10-01T19:53:51.109Z,100846.36
2018-10-01T19:56:17.870Z,100850.81
2018-10-01T19:58:44.751Z,100862.02
2018-10-01T20:01:11.598Z,100864.14
2018-10-01T20:03:38.487Z,100868.28
2018-10-01T20:06:05.395Z,100864.22
2018-10-01T20:08:32.275Z,100865.66
2018-10-01T20:11:00.363Z,100860.05
2018-10-01T20:13:27.201Z,100865.17
2018-10-01T20:15:54.078Z,100863.61
2018-10-01T20:18:20.910Z,100864.36
2018-10-01T20:20:47.801Z,100867.09
2018-10-01T20:23:14.714Z,100879.64
2018-10-01T20:25:41.596Z,100876.62
2018-10-01T20:28:08.778Z,100874.30
2018-10-01T20:30:36.416Z,100873.80
2018-10-01T20:33:03.275Z,100881.76
2018-10-01T20:35:30.286Z,100879.81
2018-10-01T20:37:58.061Z,100874.70
2018-10-01T20:40:24.860Z,100878.64
2018-10-01T20:42:51.744Z,100877.81
2018-10-01T20:45:18.670Z,100890.55
2018-10-01T20:47:45.521Z,100883.23
2018-10-01T20:50:12.352Z,100895.23
2018-10-01T20:52:39.245Z,100895.43
2018-10-01T20:55:06.142Z,100891.05
2018-10-01T20:57:33.080Z,100886.23
2018-10-01T20:59:59.934Z,100893.88
2018-10-01T21:02:26.921Z,100892.19
2018-10-01T21:04:53.825Z,100898.05
2018-10-01T21:07:20.667Z,100896.56
2018-10-01T21:09:47.522Z,100896.69
2018-10-01T21:12:14.416Z,100901.39
2018-10-01T21:14:41.223Z,100911.80
2018-10-01T21:17:08.096Z,100905.91
2018-10-01T21:19:34.954Z,100912.14
2018-10-01T21:22:01.834Z,100918.63
2018-10-01T21:24:28.800Z,100916.65
2018-10-01T21:26:55.714Z,100917.48
2018-10-01T21:29:23.602Z,100928.78
2018-10-01T21:31:50.426Z,100922.95
2018-10-01T21:34:17.334Z,100926.64
2018-10-01T21:36:44.262Z,100926.88
2018-10-01T21:39:22.985Z,100926.66
2018-10-01T21:41:49.849Z,100935.77
2018-10-01T21:44:16.698Z,100928.94
2018-10-01T21:46:43.578Z,100934.83
2018-10-01T21:49:10.534Z,100932.97
2018-10-01T21:51:37.498Z,100933.66
2018-10-01T21:54:04.339Z,100929.88
2018-10-01T21:56:31.278Z,100928.83
2018-10-01T21:58:58.137Z,100929.55
2018-10-01T22:01:30.953Z,100928.13
2018-10-01T22:03:57.886Z,100927.88
2018-10-01T22:06:24.750Z,100936.37
2018-10-01T22:08:51.574Z,100937.52
2018-10-01T22:11:18.455Z,100937.64
2018-10-01T22:13:46.334Z,100925.74
2018-10-01T22:16:13.219Z,100930.78
2018-10-01T22:18:40.054Z,100934.34
2018-10-01T22:21:06.909Z,100931.87
2018-10-01T22:23:33.758Z,100936.30
2018-10-01T22:26:00.603Z,100935.34
2018-10-01T22:28:27.464Z,100939.55
2018-10-01T22:30:54.314Z,100938.37
2018-10-01T22:33:21.183Z,100939.83
2018-10-01T22:35:48.126Z,100945.12
2018-10-01T22:38:14.973Z,100942.64
2018-10-01T22:40:41.852Z,100943.07
2018-10-01T22:43:08.699Z,100942.93
2018-10-01T22:45:35.554Z,100947.20
2018-10-01T22:48:02.406Z,100945.13
2018-10-01T22:50:30.290Z,100941.63
2018-10-01T22:52:57.170Z,100943.27
2018-10-01T22:55:24.101Z,100944.02
2018-10-01T22:57:50.938Z,100938.45
2018-10-01T23:00:17.823Z,100938.87
2018-10-01T23:02:44.717Z,100942.02
2018-10-01T23:05:11.622Z,100940.25
2018-10-01T23:07:38.453Z,100940.06
2018-10-01T23:10:05.337Z,100945.55
2018-10-01T23:12:32.201Z,100947.20
2018-10-01T23:14:59.161Z,100941.59
2018-10-01T23:17:26.116Z,100945.87
2018-10-01T23:19:53.062Z,100944.58
2018-10-01T23:22:19.914Z,100945.95
2018-10-01T23:24:46.754Z,100946.19
2018-10-01T23:27:13.630Z,100951.80
2018-10-01T23:29:40.515Z,100953.41
2018-10-01T23:32:07.454Z,100954.13
2018-10-01T23:34:35.453Z,100950.06
2018-10-01T23:37:03.692Z,100956.34
2018-10-01T23:39:30.553Z,100959.13
2018-10-01T23:41:57.393Z,100959.20
2018-10-01T23:44:24.269Z,100958.83
2018-10-01T23:46:52.169Z,100961.00
2018-10-01T23:49:19.158Z,100964.86
2018-10-01T23:51:45.997Z,100969.59
2018-10-01T23:54:12.913Z,100965.66
2018-10-01T23:56:39.788Z,100962.71
2018-10-01T23:59:06.813Z,100963.61
